createdAt,value
2022-08-03T00:00:02.085Z,0.00
2022-08-03T00:01:02.030Z,0.00
2022-08-03T00:02:02.119Z,0.00
2022-08-03T00:03:02.110Z,0.00
2022-08-03T00:04:02.006Z,0.00
2022-08-03T00:05:01.984Z,0.00
2022-08-03T00:06:04.750Z,0.00
2022-08-03T00:07:01.991Z,0.00
2022-08-03T00:08:01.924Z,0.00
2022-08-03T00:09:01.964Z,0.00
2022-08-03T00:10:01.917Z,0.00
2022-08-03T00:11:01.935Z,0.00
2022-08-03T00:12:01.969Z,0.00
2022-08-03T00:13:01.861Z,0.00
2022-08-03T00:14:01.854Z,0.00
2022-08-03T00:15:02.841Z,0.00
2022-08-03T00:16:01.796Z,0.00
2022-08-03T00:17:01.825Z,0.00
2022-08-03T00:18:01.810Z,0.00
2022-08-03T00:19:02.127Z,0.00
2022-08-03T00:20:01.760Z,0.00
2022-08-03T00:21:01.778Z,0.00
2022-08-03T00:22:01.754Z,0.00
2022-08-03T00:23:01.732Z,0.00
2022-08-03T00:24:01.726Z,0.00
2022-08-03T00:25:01.689Z,0.00
2022-08-03T00:26:01.668Z,0.00
2022-08-03T00:27:01.693Z,0.00
2022-08-03T00:28:01.645Z,0.00
2022-08-03T00:29:01.723Z,0.00
2022-08-03T00:30:01.616Z,0.00
2022-08-03T00:31:01.583Z,0.00
2022-08-03T00:32:01.599Z,0.00
2022-08-03T00:33:01.570Z,0.00
2022-08-03T00:34:03.496Z,0.00
2022-08-03T00:35:07.894Z,0.00
2022-08-03T00:36:02.519Z,0.00
2022-08-03T00:37:01.517Z,0.00
2022-08-03T00:38:01.479Z,0.00
2022-08-03T00:39:01.517Z,0.00
2022-08-03T00:40:01.441Z,0.00
2022-08-03T00:41:01.429Z,0.00
2022-08-03T00:42:01.422Z,0.00
2022-08-03T00:43:01.424Z,0.00
2022-08-03T00:44:01.476Z,0.00
2022-08-03T00:45:01.363Z,0.00
2022-08-03T00:46:01.445Z,0.00
2022-08-03T00:47:01.315Z,0.00
2022-08-03T00:48:01.356Z,0.00
2022-08-03T00:49:02.332Z,0.00
2022-08-03T00:50:01.299Z,0.00
2022-08-03T00:51:01.224Z,0.00
2022-08-03T00:52:01.246Z,0.00
2022-08-03T00:53:02.277Z,0.00
2022-08-03T00:54:01.187Z,0.00
2022-08-03T00:55:01.178Z,0.00
2022-08-03T00:56:01.193Z,0.00
2022-08-03T00:57:01.137Z,0.00
2022-08-03T00:58:01.156Z,0.00
2022-08-03T00:59:02.131Z,0.00
2022-08-03T01:00:01.114Z,0.00
2022-08-03T01:01:01.135Z,0.00
2022-08-03T01:02:01.094Z,0.00
2022-08-03T01:03:01.099Z,0.00
2022-08-03T01:04:01.041Z,0.00
2022-08-03T01:05:01.047Z,0.00
2022-08-03T01:06:00.989Z,0.00
2022-08-03T01:07:00.978Z,0.00
2022-08-03T01:08:01.027Z,0.00
2022-08-03T01:09:00.939Z,0.00
2022-08-03T01:10:00.953Z,0.00
2022-08-03T01:11:00.937Z,0.00
2022-08-03T01:12:01.830Z,0.00
2022-08-03T01:13:01.928Z,0.00
2022-08-03T01:14:04.288Z,0.00
2022-08-03T01:15:01.857Z,0.00
2022-08-03T01:16:00.827Z,0.00
2022-08-03T01:17:00.827Z,0.00
2022-08-03T01:18:00.846Z,0.00
2022-08-03T01:19:00.787Z,0.00
2022-08-03T01:20:00.796Z,0.00
2022-08-03T01:21:00.807Z,0.00
2022-08-03T01:22:00.743Z,0.00
2022-08-03T01:23:00.757Z,0.00
2022-08-03T01:24:00.728Z,0.00
2022-08-03T01:25:00.677Z,0.00
2022-08-03T01:26:00.672Z,0.00
2022-08-03T01:27:00.665Z,0.00
2022-08-03T01:28:00.684Z,0.00
2022-08-03T01:29:00.615Z,0.00
2022-08-03T01:30:00.660Z,0.00
2022-08-03T01:31:00.603Z,0.00
2022-08-03T01:32:59.363Z,0.00
2022-08-03T01:33:02.070Z,0.00
2022-08-03T01:34:01.554Z,0.00
2022-08-03T01:35:00.539Z,0.00
2022-08-03T01:36:00.558Z,0.00
2022-08-03T01:37:00.509Z,0.00
2022-08-03T01:38:00.494Z,0.00
2022-08-03T01:39:00.485Z,0.00
2022-08-03T01:40:00.459Z,0.00
2022-08-03T01:41:00.436Z,0.00
2022-08-03T01:42:00.459Z,0.00
2022-08-03T01:43:00.423Z,0.00
2022-08-03T01:44:29.044Z,0.00
2022-08-03T01:45:01.373Z,0.00
2022-08-03T01:46:00.335Z,0.00
2022-08-03T01:47:00.341Z,0.00
2022-08-03T01:48:00.402Z,0.00
2022-08-03T01:49:00.328Z,0.00
2022-08-03T01:50:01.294Z,0.00
2022-08-03T01:51:00.281Z,0.00
2022-08-03T01:52:05.056Z,0.00
2022-08-03T01:53:01.261Z,0.00
2022-08-03T01:54:00.225Z,0.00
2022-08-03T01:55:00.207Z,0.00
2022-08-03T01:56:00.163Z,0.00
2022-08-03T01:57:00.149Z,0.00
2022-08-03T01:58:06.040Z,0.00
2022-08-03T01:59:01.157Z,0.00
2022-08-03T02:00:00.150Z,0.00
2022-08-03T02:01:00.175Z,0.00
2022-08-03T02:02:27.740Z,0.00
2022-08-03T02:03:01.088Z,0.00
2022-08-03T02:04:01.175Z,0.00
2022-08-03T02:05:00.022Z,0.00
2022-08-03T02:06:55.626Z,0.00
2022-08-03T02:07:03.339Z,0.00
2022-08-03T02:08:01.008Z,0.00
2022-08-03T02:08:59.985Z,0.00
2022-08-03T02:09:59.988Z,0.00
2022-08-03T02:10:59.934Z,0.00
2022-08-03T02:11:59.910Z,0.00
2022-08-03T02:12:59.970Z,0.00
2022-08-03T02:13:59.877Z,0.00
2022-08-03T02:15:00.047Z,0.00
2022-08-03T02:15:59.859Z,0.00
2022-08-03T02:16:59.821Z,0.00
2022-08-03T02:17:59.835Z,0.00
2022-08-03T02:18:59.823Z,0.00
2022-08-03T02:19:59.775Z,0.00
2022-08-03T02:20:59.768Z,0.00
2022-08-03T02:22:01.112Z,0.00
2022-08-03T02:22:59.777Z,0.00
2022-08-03T02:23:59.701Z,0.00
2022-08-03T02:24:59.743Z,0.00
2022-08-03T02:26:01.972Z,0.00
2022-08-03T02:26:59.661Z,0.00
2022-08-03T02:28:00.751Z,0.00
2022-08-03T02:28:59.644Z,0.00
2022-08-03T02:29:59.643Z,0.00
2022-08-03T02:30:59.652Z,0.00
2022-08-03T02:31:59.590Z,0.00
2022-08-03T02:32:59.589Z,0.00
2022-08-03T02:33:59.572Z,0.00
2022-08-03T02:34:59.558Z,0.00
2022-08-03T02:35:59.504Z,0.00
2022-08-03T02:36:59.525Z,0.00
2022-08-03T02:37:59.532Z,0.00
2022-08-03T02:38:59.466Z,0.00
2022-08-03T02:39:59.467Z,0.00
2022-08-03T02:40:59.432Z,0.00
2022-08-03T02:41:59.450Z,0.00
2022-08-03T02:42:59.456Z,0.00
2022-08-03T02:44:06.557Z,0.00
2022-08-03T02:45:00.382Z,0.00
2022-08-03T02:45:59.350Z,0.00
2022-08-03T02:46:59.343Z,0.00
2022-08-03T02:47:59.366Z,0.00
2022-08-03T02:48:59.339Z,0.00
2022-08-03T02:50:01.394Z,0.00
2022-08-03T02:50:59.694Z,0.00
2022-08-03T02:51:59.234Z,0.00
2022-08-03T02:52:59.281Z,0.00
2022-08-03T02:53:59.219Z,0.00
2022-08-03T02:54:59.185Z,0.00
2022-08-03T02:55:59.209Z,0.00
2022-08-03T02:56:59.179Z,0.00
2022-08-03T02:58:01.305Z,0.00
2022-08-03T02:58:59.144Z,0.00
2022-08-03T02:59:59.102Z,0.00
2022-08-03T03:00:59.117Z,0.00
2022-08-03T03:01:59.110Z,0.00
2022-08-03T03:02:59.578Z,0.00
2022-08-03T03:03:59.057Z,0.00
2022-08-03T03:05:56.152Z,4.00
2022-08-03T03:06:00.023Z,4.00
2022-08-03T03:06:58.980Z,4.00
2022-08-03T03:07:59.038Z,0.00
2022-08-03T03:08:59.924Z,0.00
2022-08-03T03:09:59.948Z,4.00
2022-08-03T03:10:58.951Z,4.00
2022-08-03T03:11:58.921Z,0.00
2022-08-03T03:12:58.914Z,4.00
2022-08-03T03:13:58.925Z,8.00
2022-08-03T03:14:58.865Z,4.00
2022-08-03T03:15:58.888Z,4.00
2022-08-03T03:16:58.847Z,8.00
2022-08-03T03:17:58.866Z,8.00
2022-08-03T03:18:58.802Z,12.00
2022-08-03T03:19:58.841Z,12.00
2022-08-03T03:20:58.760Z,12.00
2022-08-03T03:21:58.779Z,12.00
2022-08-03T03:22:58.752Z,16.00
2022-08-03T03:23:58.754Z,20.00
2022-08-03T03:24:58.707Z,24.00
2022-08-03T03:25:58.684Z,28.00
2022-08-03T03:26:58.681Z,32.00
2022-08-03T03:27:58.695Z,40.00
2022-08-03T03:28:58.629Z,44.00
2022-08-03T03:29:58.634Z,52.00
2022-08-03T03:30:58.622Z,56.00
2022-08-03T03:31:58.597Z,64.00
2022-08-03T03:32:58.607Z,76.00
2022-08-03T03:33:58.547Z,84.00
2022-08-03T03:34:58.533Z,92.00
2022-08-03T03:35:58.542Z,104.00
2022-08-03T03:36:58.500Z,116.00
2022-08-03T03:37:58.521Z,132.00
2022-08-03T03:38:58.507Z,148.00
2022-08-03T03:39:58.469Z,164.00
2022-08-03T03:40:58.449Z,180.00
2022-08-03T03:41:58.428Z,200.00
2022-08-03T03:42:58.432Z,220.00
2022-08-03T03:43:58.405Z,240.00
2022-08-03T03:44:58.367Z,264.00
2022-08-03T03:45:58.395Z,288.00
2022-08-03T03:46:58.324Z,316.00
2022-08-03T03:47:58.338Z,344.00
2022-08-03T03:48:58.381Z,368.00
2022-08-03T03:49:58.281Z,400.00
2022-08-03T03:50:58.274Z,432.00
2022-08-03T03:51:58.263Z,464.00
2022-08-03T03:52:58.249Z,504.00
2022-08-03T03:53:58.230Z,540.00
2022-08-03T03:55:01.003Z,584.00
2022-08-03T03:56:02.441Z,620.00
2022-08-03T03:56:58.165Z,664.00
2022-08-03T03:57:58.143Z,712.00
2022-08-03T03:58:58.149Z,760.00
2022-08-03T03:59:58.096Z,808.00
2022-08-03T04:00:58.216Z,856.00
2022-08-03T04:01:59.258Z,912.00
2022-08-03T04:02:58.062Z,964.00
2022-08-03T04:03:58.077Z,1020.00
2022-08-03T04:04:58.029Z,1072.00
2022-08-03T04:05:57.998Z,1148.00
2022-08-03T04:06:57.980Z,1188.00
2022-08-03T04:07:57.956Z,1252.00
2022-08-03T04:08:57.986Z,1312.00
2022-08-03T04:09:57.928Z,1372.00
2022-08-03T04:10:58.904Z,1432.00
2022-08-03T04:11:57.940Z,1496.00
2022-08-03T04:12:57.887Z,1564.00
2022-08-03T04:13:57.880Z,1620.00
2022-08-03T04:14:58.862Z,1688.00
2022-08-03T04:15:57.844Z,1732.00
2022-08-03T04:16:57.817Z,1784.00
2022-08-03T04:17:57.792Z,1868.00
2022-08-03T04:18:57.820Z,1964.00
2022-08-03T04:19:57.755Z,2048.00
2022-08-03T04:20:57.739Z,2104.00
2022-08-03T04:21:57.732Z,2184.00
2022-08-03T04:22:57.713Z,2252.00
2022-08-03T04:23:57.693Z,2332.00
2022-08-03T04:24:57.696Z,2408.00
2022-08-03T04:25:57.647Z,2472.00
2022-08-03T04:26:57.642Z,2556.00
2022-08-03T04:28:29.640Z,2596.00
2022-08-03T04:28:58.664Z,2932.00
2022-08-03T04:29:57.587Z,2700.00
2022-08-03T04:30:57.549Z,2884.00
2022-08-03T04:31:57.558Z,2940.00
2022-08-03T04:32:57.563Z,3012.00
2022-08-03T04:33:57.553Z,3092.00
2022-08-03T04:34:57.484Z,3172.00
2022-08-03T04:36:01.741Z,3288.00
2022-08-03T04:36:58.568Z,3424.00
2022-08-03T04:37:57.455Z,3464.00
2022-08-03T04:38:57.491Z,3592.00
2022-08-03T04:39:57.707Z,3656.00
2022-08-03T04:40:57.424Z,3776.00
2022-08-03T04:42:07.613Z,3836.00
2022-08-03T04:42:58.348Z,3936.00
2022-08-03T04:43:57.345Z,4040.00
2022-08-03T04:45:01.016Z,4144.00
2022-08-03T04:45:58.314Z,4252.00
2022-08-03T04:46:57.312Z,4356.00
2022-08-03T04:47:57.302Z,4448.00
2022-08-03T04:48:57.364Z,4560.00
2022-08-03T04:49:57.260Z,4648.00
2022-08-03T04:50:57.250Z,4716.00
2022-08-03T04:51:57.189Z,4784.00
2022-08-03T04:52:57.158Z,5044.00
2022-08-03T04:53:57.230Z,5852.00
2022-08-03T04:54:57.134Z,6052.00
2022-08-03T04:55:57.122Z,5976.00
2022-08-03T04:56:57.187Z,5608.00
2022-08-03T04:57:57.120Z,5692.00
2022-08-03T04:58:57.126Z,5696.00
2022-08-03T05:00:02.455Z,5500.00
2022-08-03T05:00:59.042Z,5352.00
2022-08-03T05:01:57.066Z,5436.00
2022-08-03T05:02:57.049Z,5840.00
2022-08-03T05:03:57.061Z,6200.00
2022-08-03T05:04:57.006Z,6860.00
2022-08-03T05:06:01.494Z,7600.00
2022-08-03T05:06:58.000Z,9696.00
2022-08-03T05:07:56.955Z,14720.00
2022-08-03T05:08:57.010Z,28512.00
2022-08-03T05:10:01.699Z,26912.00
2022-08-03T05:10:59.082Z,22080.00
2022-08-03T05:11:56.881Z,24256.00
2022-08-03T05:12:56.896Z,22272.00
2022-08-03T05:13:56.878Z,12980.00
2022-08-03T05:14:56.945Z,8964.00
2022-08-03T05:15:56.855Z,9096.00
2022-08-03T05:16:56.794Z,9184.00
2022-08-03T05:17:56.819Z,9148.00
2022-08-03T05:18:56.830Z,9832.00
2022-08-03T05:19:56.782Z,17696.00
2022-08-03T05:20:56.765Z,30912.00
2022-08-03T05:21:56.730Z,38304.00
2022-08-03T05:22:56.702Z,40928.00
2022-08-03T05:23:56.754Z,43104.00
2022-08-03T05:24:56.664Z,41920.00
2022-08-03T05:25:56.627Z,42464.00
2022-08-03T05:26:56.639Z,38912.00
2022-08-03T05:27:56.707Z,43744.00
2022-08-03T05:28:56.628Z,45856.00
2022-08-03T05:29:56.613Z,39136.00
2022-08-03T05:30:57.574Z,35168.00
2022-08-03T05:31:56.525Z,36000.00
2022-08-03T05:32:56.559Z,28288.00
2022-08-03T05:33:56.561Z,18048.00
2022-08-03T05:34:56.480Z,12556.00
2022-08-03T05:36:03.538Z,21248.00
2022-08-03T05:36:58.543Z,39136.00
2022-08-03T05:37:56.466Z,45152.00
2022-08-03T05:39:30.031Z,45984.00
2022-08-03T05:39:56.402Z,39008.00
2022-08-03T05:40:57.552Z,49920.00
2022-08-03T05:41:57.369Z,51904.00
2022-08-03T05:42:56.350Z,60896.00
2022-08-03T05:43:56.369Z,62688.00
2022-08-03T05:44:56.316Z,61504.00
2022-08-03T05:46:12.425Z,60064.00
2022-08-03T05:46:57.296Z,62112.00
2022-08-03T05:47:56.295Z,64928.00
2022-08-03T05:48:56.340Z,66144.00
2022-08-03T05:49:56.250Z,62592.00
2022-08-03T05:50:56.245Z,58400.00
2022-08-03T05:52:00.457Z,46144.00
2022-08-03T05:52:57.194Z,32736.00
2022-08-03T05:53:56.218Z,15268.00
2022-08-03T05:54:57.756Z,18112.00
2022-08-03T05:55:59.300Z,38848.00
2022-08-03T05:56:58.183Z,55168.00
2022-08-03T05:57:56.735Z,55936.00
2022-08-03T05:58:56.281Z,58304.00
2022-08-03T05:59:58.297Z,65856.00
2022-08-03T06:00:56.075Z,68032.00
2022-08-03T06:01:56.274Z,69664.00
2022-08-03T06:02:56.050Z,69408.00
2022-08-03T06:03:56.093Z,68896.00
2022-08-03T06:04:57.083Z,73888.00
2022-08-03T06:06:00.338Z,77664.00
2022-08-03T06:06:56.002Z,75904.00
2022-08-03T06:07:56.021Z,70720.00
2022-08-03T06:08:56.101Z,63328.00
2022-08-03T06:10:35.601Z,61984.00
2022-08-03T06:10:57.017Z,65920.00
2022-08-03T06:11:55.981Z,68768.00
2022-08-03T06:12:55.967Z,67456.00
2022-08-03T06:13:55.970Z,49920.00
2022-08-03T06:14:55.863Z,24032.00
2022-08-03T06:15:55.859Z,13860.00
2022-08-03T06:16:56.867Z,32672.00
2022-08-03T06:17:58.711Z,45856.00
2022-08-03T06:18:57.858Z,37056.00
2022-08-03T06:19:55.829Z,21312.00
2022-08-03T06:20:55.776Z,13380.00
2022-08-03T06:21:55.804Z,13172.00
2022-08-03T06:23:00.359Z,13196.00
2022-08-03T06:23:56.779Z,13304.00
2022-08-03T06:24:56.733Z,13472.00
2022-08-03T06:25:55.777Z,13748.00
2022-08-03T06:26:55.791Z,17120.00
2022-08-03T06:27:55.673Z,31104.00
2022-08-03T06:28:55.682Z,48288.00
2022-08-03T06:29:55.693Z,61504.00
2022-08-03T06:30:55.618Z,63008.00
2022-08-03T06:31:55.633Z,72320.00
2022-08-03T06:32:55.598Z,74080.00
2022-08-03T06:34:33.153Z,73024.00
2022-08-03T06:34:56.638Z,74176.00
2022-08-03T06:35:55.552Z,78048.00
2022-08-03T06:37:01.728Z,81280.00
2022-08-03T06:37:57.532Z,80640.00
2022-08-03T06:38:55.509Z,80256.00
2022-08-03T06:39:55.532Z,83424.00
2022-08-03T06:40:55.518Z,90208.00
2022-08-03T06:41:55.499Z,92448.00
2022-08-03T06:42:55.457Z,89888.00
2022-08-03T06:44:03.948Z,81056.00
2022-08-03T06:44:56.449Z,80448.00
2022-08-03T06:45:55.411Z,83424.00
2022-08-03T06:46:55.400Z,84128.00
2022-08-03T06:47:55.369Z,82816.00
2022-08-03T06:48:55.380Z,81824.00
2022-08-03T06:50:12.642Z,83712.00
2022-08-03T06:50:56.484Z,83456.00
2022-08-03T06:52:06.262Z,83424.00
2022-08-03T06:52:56.349Z,78240.00
2022-08-03T06:53:55.289Z,74848.00
2022-08-03T06:54:55.314Z,75392.00
2022-08-03T06:55:55.491Z,77728.00
2022-08-03T06:56:55.232Z,78944.00
2022-08-03T06:57:55.236Z,81504.00
2022-08-03T06:58:55.239Z,83392.00
2022-08-03T07:00:05.993Z,88032.00
2022-08-03T07:00:56.213Z,90784.00
2022-08-03T07:01:55.232Z,93888.00
2022-08-03T07:02:58.279Z,96608.00
2022-08-03T07:03:56.190Z,98912.00
2022-08-03T07:04:55.174Z,94400.00
2022-08-03T07:05:55.106Z,91648.00
2022-08-03T07:06:55.136Z,89120.00
2022-08-03T07:07:55.087Z,88736.00
2022-08-03T07:08:59.195Z,88416.00
2022-08-03T07:09:57.618Z,87008.00
2022-08-03T07:10:55.067Z,86496.00
2022-08-03T07:11:55.092Z,91968.00
2022-08-03T07:12:56.097Z,92352.00
2022-08-03T07:13:55.185Z,93696.00
2022-08-03T07:14:59.792Z,93376.00
2022-08-03T07:15:56.989Z,91424.00
2022-08-03T07:16:55.971Z,91008.00
2022-08-03T07:17:54.949Z,89536.00
2022-08-03T07:18:54.981Z,87680.00
2022-08-03T07:19:55.123Z,85632.00
2022-08-03T07:20:54.936Z,87264.00
2022-08-03T07:21:54.888Z,85216.00
2022-08-03T07:22:55.904Z,82528.00
2022-08-03T07:23:54.897Z,84512.00
2022-08-03T07:24:54.897Z,88896.00
2022-08-03T07:25:54.858Z,90688.00
2022-08-03T07:26:54.856Z,90144.00
2022-08-03T07:27:54.830Z,89024.00
2022-08-03T07:28:54.792Z,86656.00
2022-08-03T07:29:54.845Z,81888.00
2022-08-03T07:30:54.813Z,80608.00
2022-08-03T07:31:54.757Z,80992.00
2022-08-03T07:32:54.777Z,81344.00
2022-08-03T07:33:54.772Z,82624.00
2022-08-03T07:34:58.503Z,85920.00
2022-08-03T07:35:56.728Z,89216.00
2022-08-03T07:36:54.685Z,86752.00
2022-08-03T07:37:55.238Z,89376.00
2022-08-03T07:38:54.673Z,87872.00
2022-08-03T07:39:54.752Z,86976.00
2022-08-03T07:40:54.654Z,86688.00
2022-08-03T07:41:54.645Z,90592.00
2022-08-03T07:42:54.619Z,91680.00
2022-08-03T07:43:54.641Z,89824.00
2022-08-03T07:44:54.633Z,87808.00
2022-08-03T07:45:54.604Z,90016.00
2022-08-03T07:46:54.591Z,83296.00
2022-08-03T07:47:54.613Z,90688.00
2022-08-03T07:48:54.570Z,89632.00
2022-08-03T07:49:54.733Z,89344.00
2022-08-03T07:50:54.517Z,89184.00
2022-08-03T07:51:54.558Z,86560.00
2022-08-03T07:52:54.480Z,85984.00
2022-08-03T07:53:54.461Z,88576.00
2022-08-03T07:54:54.530Z,82912.00
2022-08-03T07:55:54.470Z,87424.00
2022-08-03T07:56:54.459Z,88128.00
2022-08-03T07:57:54.419Z,86560.00
2022-08-03T07:58:54.465Z,84512.00
2022-08-03T08:00:01.737Z,87072.00
2022-08-03T08:00:55.420Z,85888.00
2022-08-03T08:01:54.391Z,83456.00
2022-08-03T08:02:54.369Z,88960.00
2022-08-03T08:03:54.385Z,89312.00
2022-08-03T08:04:54.409Z,86016.00
2022-08-03T08:05:54.362Z,84416.00
2022-08-03T08:06:54.300Z,86848.00
2022-08-03T08:07:54.307Z,91584.00
2022-08-03T08:08:54.295Z,98176.00
2022-08-03T08:09:54.298Z,105504.00
2022-08-03T08:10:58.256Z,105408.00
2022-08-03T08:11:54.253Z,101088.00
2022-08-03T08:12:54.235Z,94464.00
2022-08-03T08:13:54.248Z,89088.00
2022-08-03T08:14:54.219Z,84256.00
2022-08-03T08:15:54.291Z,81152.00
2022-08-03T08:16:54.177Z,82272.00
2022-08-03T08:17:54.196Z,81408.00
2022-08-03T08:18:54.226Z,82976.00
2022-08-03T08:19:55.545Z,82624.00
2022-08-03T08:20:54.137Z,82016.00
2022-08-03T08:22:02.637Z,85664.00
2022-08-03T08:22:55.103Z,87584.00
2022-08-03T08:23:55.607Z,90656.00
2022-08-03T08:24:54.088Z,91200.00
2022-08-03T08:25:54.060Z,88256.00
2022-08-03T08:26:54.192Z,84864.00
2022-08-03T08:28:29.586Z,83200.00
2022-08-03T08:28:55.005Z,84032.00
2022-08-03T08:29:54.583Z,84640.00
2022-08-03T08:30:54.056Z,83040.00
2022-08-03T08:31:53.960Z,81952.00
2022-08-03T08:32:53.980Z,81728.00
2022-08-03T08:34:09.230Z,88224.00
2022-08-03T08:34:56.628Z,93280.00
2022-08-03T08:35:53.917Z,96448.00
2022-08-03T08:36:53.916Z,92576.00
2022-08-03T08:37:53.921Z,87328.00
2022-08-03T08:38:53.876Z,85856.00
2022-08-03T08:39:53.890Z,88448.00
2022-08-03T08:40:53.889Z,90912.00
2022-08-03T08:41:53.855Z,95136.00
2022-08-03T08:42:58.924Z,94624.00
2022-08-03T08:44:00.023Z,89088.00
2022-08-03T08:44:54.885Z,89792.00
2022-08-03T08:45:53.806Z,94816.00
2022-08-03T08:46:53.785Z,94816.00
2022-08-03T08:47:58.247Z,85184.00
2022-08-03T08:48:55.835Z,80576.00
2022-08-03T08:50:09.416Z,79840.00
2022-08-03T08:50:55.781Z,83296.00
2022-08-03T08:52:00.900Z,88128.00
2022-08-03T08:52:55.746Z,84032.00
2022-08-03T08:53:53.748Z,83360.00
2022-08-03T08:54:53.717Z,90208.00
2022-08-03T08:55:58.790Z,93984.00
2022-08-03T08:56:54.675Z,95072.00
2022-08-03T08:57:53.653Z,92000.00
2022-08-03T08:58:53.625Z,91680.00
2022-08-03T08:59:57.268Z,92192.00
2022-08-03T09:00:54.691Z,90496.00
2022-08-03T09:01:53.593Z,85440.00
2022-08-03T09:02:53.590Z,87488.00
2022-08-03T09:03:53.607Z,87744.00
2022-08-03T09:04:53.598Z,85408.00
2022-08-03T09:05:56.098Z,85152.00
2022-08-03T09:07:18.663Z,94688.00
2022-08-03T09:07:55.513Z,99296.00
2022-08-03T09:08:53.543Z,89984.00
2022-08-03T09:10:10.637Z,76928.00
2022-08-03T09:10:54.513Z,75104.00
2022-08-03T09:12:01.210Z,85408.00
2022-08-03T09:12:54.473Z,83488.00
2022-08-03T09:13:53.452Z,89504.00
2022-08-03T09:15:14.694Z,90624.00
2022-08-03T09:16:00.790Z,79264.00
2022-08-03T09:16:54.400Z,74976.00
2022-08-03T09:17:53.433Z,78304.00
2022-08-03T09:18:53.411Z,80128.00
2022-08-03T09:20:03.429Z,76448.00
2022-08-03T09:20:54.391Z,75808.00
2022-08-03T09:21:53.372Z,75232.00
2022-08-03T09:22:53.331Z,76032.00
2022-08-03T09:24:02.251Z,73760.00
2022-08-03T09:25:21.484Z,68672.00
2022-08-03T09:25:55.599Z,64512.00
2022-08-03T09:26:53.854Z,67072.00
2022-08-03T09:27:53.498Z,69984.00
2022-08-03T09:29:03.888Z,69664.00
2022-08-03T09:29:54.259Z,73824.00
2022-08-03T09:30:53.282Z,78016.00
2022-08-03T09:31:53.224Z,78624.00
2022-08-03T09:32:53.222Z,80928.00
2022-08-03T09:33:53.217Z,84320.00
2022-08-03T09:34:57.826Z,80736.00
2022-08-03T09:35:57.614Z,74816.00
2022-08-03T09:36:53.210Z,75904.00
2022-08-03T09:38:11.882Z,80832.00
2022-08-03T09:38:54.135Z,80320.00
2022-08-03T09:39:53.132Z,74304.00
2022-08-03T09:40:57.464Z,70336.00
2022-08-03T09:41:55.115Z,71040.00
2022-08-03T09:42:53.098Z,69920.00
2022-08-03T09:43:53.103Z,73088.00
2022-08-03T09:44:53.094Z,74560.00
2022-08-03T09:45:53.125Z,72768.00
2022-08-03T09:46:53.038Z,72128.00
2022-08-03T09:47:53.025Z,73664.00
2022-08-03T09:48:53.019Z,73568.00
2022-08-03T09:49:52.992Z,69984.00
2022-08-03T09:50:58.605Z,65728.00
2022-08-03T09:52:37.773Z,65920.00
2022-08-03T09:52:53.961Z,68896.00
2022-08-03T09:53:59.178Z,70976.00
2022-08-03T09:54:53.960Z,69856.00
2022-08-03T09:56:35.530Z,67072.00
2022-08-03T09:56:53.966Z,65280.00
2022-08-03T09:57:52.887Z,67328.00
2022-08-03T09:58:52.906Z,69952.00
2022-08-03T10:00:01.897Z,68160.00
2022-08-03T10:00:55.240Z,68608.00
2022-08-03T10:01:52.918Z,70976.00
2022-08-03T10:02:52.862Z,69792.00
2022-08-03T10:04:04.504Z,65504.00
2022-08-03T10:04:54.839Z,62944.00
2022-08-03T10:05:57.494Z,62848.00
2022-08-03T10:06:54.798Z,65056.00
2022-08-03T10:07:52.764Z,64800.00
2022-08-03T10:08:52.775Z,63616.00
2022-08-03T10:09:52.733Z,63808.00
2022-08-03T10:10:52.800Z,63744.00
2022-08-03T10:11:52.729Z,64256.00
2022-08-03T10:12:52.711Z,65760.00
2022-08-03T10:13:52.702Z,62464.00
2022-08-03T10:14:53.689Z,57344.00
2022-08-03T10:16:22.767Z,56992.00
2022-08-03T10:16:53.676Z,57664.00
2022-08-03T10:17:52.632Z,57600.00
2022-08-03T10:18:52.655Z,60224.00
2022-08-03T10:19:52.607Z,59968.00
2022-08-03T10:20:52.686Z,61632.00
2022-08-03T10:21:52.599Z,61184.00
2022-08-03T10:22:52.707Z,59360.00
2022-08-03T10:23:52.563Z,59328.00
2022-08-03T10:24:52.568Z,57344.00
2022-08-03T10:25:52.577Z,58560.00
2022-08-03T10:26:52.537Z,61504.00
2022-08-03T10:27:52.531Z,57824.00
2022-08-03T10:28:52.495Z,58080.00
2022-08-03T10:29:52.484Z,58624.00
2022-08-03T10:30:52.504Z,58080.00
2022-08-03T10:31:54.494Z,58528.00
2022-08-03T10:32:53.449Z,53696.00
2022-08-03T10:33:53.345Z,49984.00
2022-08-03T10:35:00.037Z,45088.00
2022-08-03T10:35:53.442Z,54016.00
2022-08-03T10:36:52.400Z,51776.00
2022-08-03T10:37:56.681Z,45152.00
2022-08-03T10:38:52.416Z,28384.00
2022-08-03T10:39:52.359Z,16004.00
2022-08-03T10:40:55.888Z,15388.00
2022-08-03T10:41:54.328Z,15080.00
2022-08-03T10:42:52.330Z,14968.00
2022-08-03T10:43:52.306Z,14936.00
2022-08-03T10:44:52.299Z,14860.00
2022-08-03T10:45:52.304Z,14884.00
2022-08-03T10:46:52.261Z,14828.00
2022-08-03T10:47:52.251Z,14816.00
2022-08-03T10:48:52.313Z,14368.00
2022-08-03T10:49:52.255Z,14472.00
2022-08-03T10:50:52.249Z,14840.00
2022-08-03T10:51:54.277Z,14896.00
2022-08-03T10:52:52.177Z,14860.00
2022-08-03T10:53:55.088Z,14856.00
2022-08-03T10:54:52.137Z,14828.00
2022-08-03T10:55:52.169Z,14840.00
2022-08-03T10:56:52.126Z,14664.00
2022-08-03T10:57:52.534Z,14568.00
2022-08-03T10:58:57.669Z,13052.00
2022-08-03T10:59:53.110Z,13068.00
2022-08-03T11:00:52.159Z,12172.00
2022-08-03T11:01:58.170Z,13620.00
2022-08-03T11:02:53.042Z,13812.00
2022-08-03T11:03:52.035Z,13732.00
2022-08-03T11:04:52.033Z,13584.00
2022-08-03T11:05:52.043Z,13400.00
2022-08-03T11:06:51.994Z,13060.00
2022-08-03T11:07:53.055Z,12792.00
2022-08-03T11:08:51.951Z,12504.00
2022-08-03T11:09:51.995Z,12244.00
2022-08-03T11:10:51.944Z,11960.00
2022-08-03T11:11:51.896Z,11720.00
2022-08-03T11:12:51.900Z,11512.00
2022-08-03T11:13:51.901Z,11276.00
2022-08-03T11:14:51.869Z,11048.00
2022-08-03T11:15:51.898Z,10884.00
2022-08-03T11:16:51.851Z,10692.00
2022-08-03T11:17:56.020Z,10492.00
2022-08-03T11:18:51.815Z,10280.00
2022-08-03T11:19:57.063Z,10084.00
2022-08-03T11:20:52.797Z,9856.00
2022-08-03T11:21:51.771Z,9480.00
2022-08-03T11:22:51.739Z,9616.00
2022-08-03T11:24:04.888Z,9532.00
2022-08-03T11:24:52.731Z,9424.00
2022-08-03T11:25:55.134Z,9288.00
2022-08-03T11:26:51.701Z,9152.00
2022-08-03T11:27:51.649Z,9020.00
2022-08-03T11:28:51.654Z,8908.00
2022-08-03T11:29:51.614Z,8808.00
2022-08-03T11:30:51.643Z,8708.00
2022-08-03T11:31:51.971Z,8628.00
2022-08-03T11:32:51.577Z,8552.00
2022-08-03T11:33:51.563Z,8488.00
2022-08-03T11:34:51.566Z,8420.00
2022-08-03T11:35:51.628Z,8356.00
2022-08-03T11:36:51.532Z,8300.00
2022-08-03T11:38:01.931Z,8264.00
2022-08-03T11:38:52.493Z,8224.00
2022-08-03T11:40:23.877Z,8168.00
2022-08-03T11:40:51.551Z,8124.00
2022-08-03T11:41:51.497Z,8088.00
2022-08-03T11:42:51.510Z,8056.00
2022-08-03T11:43:51.497Z,8012.00
2022-08-03T11:44:51.424Z,7980.00
2022-08-03T11:45:51.505Z,7928.00
2022-08-03T11:46:51.418Z,7880.00
2022-08-03T11:47:51.656Z,7840.00
2022-08-03T11:48:52.467Z,7804.00
2022-08-03T11:49:51.378Z,7620.00
2022-08-03T11:50:51.431Z,7436.00
2022-08-03T11:51:51.334Z,7252.00
2022-08-03T11:52:51.331Z,7248.00
2022-08-03T11:53:51.311Z,7232.00
2022-08-03T11:54:56.967Z,7724.00
2022-08-03T11:55:52.306Z,7592.00
2022-08-03T11:56:51.269Z,7740.00
2022-08-03T11:59:01.814Z,7720.00
2022-08-03T11:59:16.737Z,7704.00
2022-08-03T11:59:52.223Z,7672.00
2022-08-03T12:00:51.261Z,7656.00
2022-08-03T12:01:51.228Z,7640.00
2022-08-03T12:02:51.244Z,7624.00
2022-08-03T12:03:51.200Z,7672.00
2022-08-03T12:04:51.186Z,7760.00
2022-08-03T12:05:52.597Z,7864.00
2022-08-03T12:06:51.249Z,7972.00
2022-08-03T12:08:03.409Z,8068.00
2022-08-03T12:08:52.087Z,8156.00
2022-08-03T12:09:51.077Z,8248.00
2022-08-03T12:10:51.128Z,8332.00
2022-08-03T12:11:59.994Z,8400.00
2022-08-03T12:12:52.076Z,8460.00
2022-08-03T12:14:26.826Z,8528.00